sensor_id;sensor_type;location;lat;lon;timestamp;P1;durP1;ratioP1;P2;durP2;ratioP2
4182;SDS011;2105;52.300;9.182;2023-03-01T00:02:11;13.00;;;11.87;;
4182;SDS011;2105;52.300;9.182;2023-03-01T00:04:40;16.63;;;12.37;;
4182;SDS011;2105;52.300;9.182;2023-03-01T00:07:29;13.93;;;12.20;;
4182;SDS011;2105;52.300;9.182;2023-03-01T00:09:57;14.00;;;12.63;;
4182;SDS011;2105;52.300;9.182;2023-03-01T00:12:24;14.07;;;12.70;;
4182;SDS011;2105;52.300;9.182;2023-03-01T00:14:57;13.47;;;12.47;;
4182;SDS011;2105;52.300;9.182;2023-03-01T00:17:32;14.23;;;13.03;;
4182;SDS011;2105;52.300;9.182;2023-03-01T00:20:08;13.47;;;12.37;;
4182;SDS011;2105;52.300;9.182;2023-03-01T00:22:35;13.70;;;12.50;;
4182;SDS011;2105;52.300;9.182;2023-03-01T00:25:09;13.40;;;11.90;;
4182;SDS011;2105;52.300;9.182;2023-03-01T00:27:42;12.60;;;11.50;;
4182;SDS011;2105;52.300;9.182;2023-03-01T00:30:11;12.90;;;11.67;;
4182;SDS011;2105;52.300;9.182;2023-03-01T00:32:53;16.07;;;11.70;;
4182;SDS011;2105;52.300;9.182;2023-03-01T00:35:26;12.50;;;11.40;;
4182;SDS011;2105;52.300;9.182;2023-03-01T00:37:53;13.27;;;12.10;;
4182;SDS011;2105;52.300;9.182;2023-03-01T00:40:41;12.37;;;11.37;;
4182;SDS011;2105;52.300;9.182;2023-03-01T00:43:09;13.53;;;12.33;;
4182;SDS011;2105;52.300;9.182;2023-03-01T00:45:56;13.57;;;12.23;;
4182;SDS011;2105;52.300;9.182;2023-03-01T00:48:42;14.17;;;12.37;;
4182;SDS011;2105;52.300;9.182;2023-03-01T00:51:10;13.43;;;12.07;;
4182;SDS011;2105;52.300;9.182;2023-03-01T00:53:45;12.57;;;11.67;;
4182;SDS011;2105;52.300;9.182;2023-03-01T00:56:34;12.93;;;11.80;;
4182;SDS011;2105;52.300;9.182;2023-03-01T00:59:10;12.87;;;11.87;;
4182;SDS011;2105;52.300;9.182;2023-03-01T01:01:59;12.53;;;11.40;;
4182;SDS011;2105;52.300;9.182;2023-03-01T01:07:54;11.43;;;10.53;;
4182;SDS011;2105;52.300;9.182;2023-03-01T01:10:40;11.47;;;10.50;;
4182;SDS011;2105;52.300;9.182;2023-03-01T01:13:15;11.80;;;10.90;;
4182;SDS011;2105;52.300;9.182;2023-03-01T01:15:48;11.50;;;10.60;;
4182;SDS011;2105;52.300;9.182;2023-03-01T01:18:18;11.43;;;10.53;;
4182;SDS011;2105;52.300;9.182;2023-03-01T01:20:55;14.57;;;11.37;;
4182;SDS011;2105;52.300;9.182;2023-03-01T01:23:26;12.00;;;11.13;;
4182;SDS011;2105;52.300;9.182;2023-03-01T01:26:16;11.80;;;10.87;;
4182;SDS011;2105;52.300;9.182;2023-03-01T01:28:51;13.33;;;11.70;;
4182;SDS011;2105;52.300;9.182;2023-03-01T01:31:55;11.27;;;10.40;;
4182;SDS011;2105;52.300;9.182;2023-03-01T01:34:18;12.73;;;11.43;;
4182;SDS011;2105;52.300;9.182;2023-03-01T01:36:52;11.20;;;10.40;;
4182;SDS011;2105;52.300;9.182;2023-03-01T01:39:29;12.13;;;11.07;;
4182;SDS011;2105;52.300;9.182;2023-03-01T01:47:57;12.30;;;11.07;;
4182;SDS011;2105;52.300;9.182;2023-03-01T01:50:32;12.07;;;11.00;;
4182;SDS011;2105;52.300;9.182;2023-03-01T01:55:58;11.57;;;10.60;;
4182;SDS011;2105;52.300;9.182;2023-03-01T01:58:30;10.53;;;9.73;;
4182;SDS011;2105;52.300;9.182;2023-03-01T02:00:59;10.97;;;10.10;;
4182;SDS011;2105;52.300;9.182;2023-03-01T02:03:28;11.97;;;10.53;;
4182;SDS011;2105;52.300;9.182;2023-03-01T02:06:02;10.80;;;9.63;;
4182;SDS011;2105;52.300;9.182;2023-03-01T02:08:33;11.37;;;10.13;;
4182;SDS011;2105;52.300;9.182;2023-03-01T02:11:04;11.73;;;10.50;;
4182;SDS011;2105;52.300;9.182;2023-03-01T02:13:53;10.13;;;9.33;;
4182;SDS011;2105;52.300;9.182;2023-03-01T02:16:22;10.27;;;9.47;;
4182;SDS011;2105;52.300;9.182;2023-03-01T02:18:49;11.83;;;10.80;;
4182;SDS011;2105;52.300;9.182;2023-03-01T02:24:14;10.47;;;9.10;;
4182;SDS011;2105;52.300;9.182;2023-03-01T02:26:52;14.00;;;10.00;;
4182;SDS011;2105;52.300;9.182;2023-03-01T02:29:24;10.73;;;9.83;;
4182;SDS011;2105;52.300;9.182;2023-03-01T02:31:58;10.67;;;9.80;;
4182;SDS011;2105;52.300;9.182;2023-03-01T02:34:28;11.30;;;10.30;;
4182;SDS011;2105;52.300;9.182;2023-03-01T02:37:01;11.00;;;9.90;;
4182;SDS011;2105;52.300;9.182;2023-03-01T02:39:31;10.87;;;9.77;;
4182;SDS011;2105;52.300;9.182;2023-03-01T02:42:09;12.37;;;11.13;;
4182;SDS011;2105;52.300;9.182;2023-03-01T02:44:42;11.23;;;9.90;;
4182;SDS011;2105;52.300;9.182;2023-03-01T02:47:12;12.27;;;11.27;;
4182;SDS011;2105;52.300;9.182;2023-03-01T02:49:38;11.90;;;10.70;;
4182;SDS011;2105;52.300;9.182;2023-03-01T02:52:11;11.27;;;10.17;;
4182;SDS011;2105;52.300;9.182;2023-03-01T02:54:50;11.40;;;10.40;;
4182;SDS011;2105;52.300;9.182;2023-03-01T02:57:22;12.00;;;10.93;;
4182;SDS011;2105;52.300;9.182;2023-03-01T03:00:02;13.60;;;11.40;;
4182;SDS011;2105;52.300;9.182;2023-03-01T03:02:32;12.83;;;11.37;;
4182;SDS011;2105;52.300;9.182;2023-03-01T03:05:03;12.43;;;11.23;;
4182;SDS011;2105;52.300;9.182;2023-03-01T03:07:33;11.27;;;10.27;;
4182;SDS011;2105;52.300;9.182;2023-03-01T03:10:02;12.33;;;11.07;;
4182;SDS011;2105;52.300;9.182;2023-03-01T03:12:30;13.53;;;11.00;;
4182;SDS011;2105;52.300;9.182;2023-03-01T03:15:07;13.20;;;11.93;;
4182;SDS011;2105;52.300;9.182;2023-03-01T03:17:38;18.30;;;12.20;;
4182;SDS011;2105;52.300;9.182;2023-03-01T03:20:08;15.37;;;12.40;;
4182;SDS011;2105;52.300;9.182;2023-03-01T03:22:36;12.37;;;11.17;;
4182;SDS011;2105;52.300;9.182;2023-03-01T03:25:04;13.70;;;12.27;;
4182;SDS011;2105;52.300;9.182;2023-03-01T03:27:35;16.90;;;12.03;;
4182;SDS011;2105;52.300;9.182;2023-03-01T03:30:04;14.03;;;12.50;;
4182;SDS011;2105;52.300;9.182;2023-03-01T03:32:33;13.80;;;11.80;;
4182;SDS011;2105;52.300;9.182;2023-03-01T03:35:01;14.47;;;12.00;;
4182;SDS011;2105;52.300;9.182;2023-03-01T03:37:33;14.40;;;11.20;;
4182;SDS011;2105;52.300;9.182;2023-03-01T03:40:18;12.33;;;11.13;;
4182;SDS011;2105;52.300;9.182;2023-03-01T03:42:47;11.83;;;10.63;;
4182;SDS011;2105;52.300;9.182;2023-03-01T03:45:15;15.13;;;11.10;;
4182;SDS011;2105;52.300;9.182;2023-03-01T03:47:42;11.53;;;10.60;;
4182;SDS011;2105;52.300;9.182;2023-03-01T03:50:10;11.93;;;10.73;;
4182;SDS011;2105;52.300;9.182;2023-03-01T03:52:37;12.50;;;11.17;;
4182;SDS011;2105;52.300;9.182;2023-03-01T03:55:05;13.70;;;12.30;;
4182;SDS011;2105;52.300;9.182;2023-03-01T03:57:35;13.83;;;12.50;;
4182;SDS011;2105;52.300;9.182;2023-03-01T04:00:03;13.77;;;12.20;;
4182;SDS011;2105;52.300;9.182;2023-03-01T04:02:38;13.43;;;11.93;;
4182;SDS011;2105;52.300;9.182;2023-03-01T04:05:06;13.40;;;12.20;;
4182;SDS011;2105;52.300;9.182;2023-03-01T04:07:34;13.80;;;11.50;;
4182;SDS011;2105;52.300;9.182;2023-03-01T04:10:01;13.03;;;11.63;;
4182;SDS011;2105;52.300;9.182;2023-03-01T04:12:28;12.27;;;11.07;;
4182;SDS011;2105;52.300;9.182;2023-03-01T04:14:55;12.70;;;11.40;;
4182;SDS011;2105;52.300;9.182;2023-03-01T04:17:23;14.23;;;11.60;;
4182;SDS011;2105;52.300;9.182;2023-03-01T04:19:51;15.93;;;12.13;;
4182;SDS011;2105;52.300;9.182;2023-03-01T04:22:18;16.67;;;12.50;;
4182;SDS011;2105;52.300;9.182;2023-03-01T04:24:45;15.47;;;12.30;;
4182;SDS011;2105;52.300;9.182;2023-03-01T04:27:14;16.00;;;12.30;;
4182;SDS011;2105;52.300;9.182;2023-03-01T04:29:42;16.60;;;12.27;;
4182;SDS011;2105;52.300;9.182;2023-03-01T04:32:08;18.63;;;12.83;;
4182;SDS011;2105;52.300;9.182;2023-03-01T04:34:37;16.63;;;12.20;;
4182;SDS011;2105;52.300;9.182;2023-03-01T04:37:05;13.63;;;10.93;;
4182;SDS011;2105;52.300;9.182;2023-03-01T04:39:32;14.60;;;11.13;;
4182;SDS011;2105;52.300;9.182;2023-03-01T04:41:58;18.80;;;11.10;;
4182;SDS011;2105;52.300;9.182;2023-03-01T04:44:25;21.30;;;10.90;;
4182;SDS011;2105;52.300;9.182;2023-03-01T04:46:52;14.07;;;11.50;;
4182;SDS011;2105;52.300;9.182;2023-03-01T04:49:19;14.87;;;10.37;;
4182;SDS011;2105;52.300;9.182;2023-03-01T04:51:46;16.87;;;10.37;;
4182;SDS011;2105;52.300;9.182;2023-03-01T04:54:14;14.57;;;10.67;;
4182;SDS011;2105;52.300;9.182;2023-03-01T04:56:41;11.37;;;10.20;;
4182;SDS011;2105;52.300;9.182;2023-03-01T04:59:08;10.00;;;9.10;;
4182;SDS011;2105;52.300;9.182;2023-03-01T05:01:37;36.30;;;10.70;;
4182;SDS011;2105;52.300;9.182;2023-03-01T05:04:07;11.87;;;9.90;;
4182;SDS011;2105;52.300;9.182;2023-03-01T05:06:38;12.93;;;10.80;;
4182;SDS011;2105;52.300;9.182;2023-03-01T05:09:05;12.93;;;10.70;;
4182;SDS011;2105;52.300;9.182;2023-03-01T05:11:34;10.50;;;9.50;;
4182;SDS011;2105;52.300;9.182;2023-03-01T05:14:01;10.90;;;10.07;;
4182;SDS011;2105;52.300;9.182;2023-03-01T05:16:28;10.20;;;9.40;;
4182;SDS011;2105;52.300;9.182;2023-03-01T05:18:56;14.20;;;10.20;;
4182;SDS011;2105;52.300;9.182;2023-03-01T05:21:22;11.57;;;10.07;;
4182;SDS011;2105;52.300;9.182;2023-03-01T05:23:49;10.30;;;9.30;;
4182;SDS011;2105;52.300;9.182;2023-03-01T05:26:17;11.10;;;9.90;;
4182;SDS011;2105;52.300;9.182;2023-03-01T05:28:48;10.43;;;9.37;;
4182;SDS011;2105;52.300;9.182;2023-03-01T05:31:14;10.03;;;9.13;;
4182;SDS011;2105;52.300;9.182;2023-03-01T05:33:41;13.63;;;9.87;;
4182;SDS011;2105;52.300;9.182;2023-03-01T05:36:09;11.43;;;10.33;;
4182;SDS011;2105;52.300;9.182;2023-03-01T05:38:36;11.27;;;9.90;;
4182;SDS011;2105;52.300;9.182;2023-03-01T05:41:03;11.10;;;9.90;;
4182;SDS011;2105;52.300;9.182;2023-03-01T05:43:30;10.50;;;9.50;;
4182;SDS011;2105;52.300;9.182;2023-03-01T05:46:00;10.50;;;9.50;;
4182;SDS011;2105;52.300;9.182;2023-03-01T05:48:26;11.70;;;10.30;;
4182;SDS011;2105;52.300;9.182;2023-03-01T05:50:53;13.50;;;10.27;;
4182;SDS011;2105;52.300;9.182;2023-03-01T05:53:20;12.53;;;10.77;;
4182;SDS011;2105;52.300;9.182;2023-03-01T05:55:47;12.67;;;10.17;;
4182;SDS011;2105;52.300;9.182;2023-03-01T05:58:15;13.73;;;10.80;;
4182;SDS011;2105;52.300;9.182;2023-03-01T06:00:43;13.73;;;10.40;;
4182;SDS011;2105;52.300;9.182;2023-03-01T06:03:13;11.77;;;10.00;;
4182;SDS011;2105;52.300;9.182;2023-03-01T06:05:41;11.20;;;9.87;;
4182;SDS011;2105;52.300;9.182;2023-03-01T06:08:09;11.60;;;10.33;;
4182;SDS011;2105;52.300;9.182;2023-03-01T06:10:37;11.03;;;9.87;;
4182;SDS011;2105;52.300;9.182;2023-03-01T06:13:03;11.63;;;10.53;;
4182;SDS011;2105;52.300;9.182;2023-03-01T06:15:31;11.10;;;10.00;;
4182;SDS011;2105;52.300;9.182;2023-03-01T06:17:57;12.10;;;11.00;;
4182;SDS011;2105;52.300;9.182;2023-03-01T06:20:28;11.83;;;10.63;;
4182;SDS011;2105;52.300;9.182;2023-03-01T06:22:55;12.70;;;11.43;;
4182;SDS011;2105;52.300;9.182;2023-03-01T06:25:23;13.37;;;11.80;;
4182;SDS011;2105;52.300;9.182;2023-03-01T06:27:50;13.47;;;12.17;;
4182;SDS011;2105;52.300;9.182;2023-03-01T06:30:19;12.70;;;11.57;;
4182;SDS011;2105;52.300;9.182;2023-03-01T06:32:46;13.40;;;12.00;;
4182;SDS011;2105;52.300;9.182;2023-03-01T06:35:14;14.30;;;12.23;;
4182;SDS011;2105;52.300;9.182;2023-03-01T06:37:44;13.37;;;11.97;;
4182;SDS011;2105;52.300;9.182;2023-03-01T06:40:12;14.83;;;12.33;;
4182;SDS011;2105;52.300;9.182;2023-03-01T06:42:40;16.53;;;12.13;;
4182;SDS011;2105;52.300;9.182;2023-03-01T06:45:09;14.03;;;12.43;;
4182;SDS011;2105;52.300;9.182;2023-03-01T06:47:36;14.00;;;12.57;;
4182;SDS011;2105;52.300;9.182;2023-03-01T06:50:03;17.73;;;12.40;;
4182;SDS011;2105;52.300;9.182;2023-03-01T06:52:30;16.30;;;13.50;;
4182;SDS011;2105;52.300;9.182;2023-03-01T06:54:59;14.63;;;13.40;;
4182;SDS011;2105;52.300;9.182;2023-03-01T06:57:26;16.00;;;13.77;;
4182;SDS011;2105;52.300;9.182;2023-03-01T06:59:52;15.17;;;13.40;;
4182;SDS011;2105;52.300;9.182;2023-03-01T07:02:19;14.40;;;13.00;;
4182;SDS011;2105;52.300;9.182;2023-03-01T07:04:46;16.90;;;15.10;;
4182;SDS011;2105;52.300;9.182;2023-03-01T07:07:14;15.53;;;13.87;;
4182;SDS011;2105;52.300;9.182;2023-03-01T07:09:42;14.53;;;13.33;;
4182;SDS011;2105;52.300;9.182;2023-03-01T07:12:11;15.30;;;14.00;;
4182;SDS011;2105;52.300;9.182;2023-03-01T07:14:37;16.33;;;14.60;;
4182;SDS011;2105;52.300;9.182;2023-03-01T07:17:04;15.93;;;14.63;;
4182;SDS011;2105;52.300;9.182;2023-03-01T07:19:31;16.30;;;14.90;;
4182;SDS011;2105;52.300;9.182;2023-03-01T07:21:58;15.67;;;14.27;;
4182;SDS011;2105;52.300;9.182;2023-03-01T07:24:25;16.17;;;14.77;;
4182;SDS011;2105;52.300;9.182;2023-03-01T07:26:52;19.23;;;15.70;;
4182;SDS011;2105;52.300;9.182;2023-03-01T07:29:20;16.73;;;15.23;;
4182;SDS011;2105;52.300;9.182;2023-03-01T07:31:49;16.10;;;14.50;;
4182;SDS011;2105;52.300;9.182;2023-03-01T07:34:16;16.03;;;14.53;;
4182;SDS011;2105;52.300;9.182;2023-03-01T07:36:43;15.47;;;14.20;;
4182;SDS011;2105;52.300;9.182;2023-03-01T07:39:10;16.70;;;15.30;;
4182;SDS011;2105;52.300;9.182;2023-03-01T07:41:37;16.17;;;14.80;;
4182;SDS011;2105;52.300;9.182;2023-03-01T07:44:04;17.43;;;15.30;;
4182;SDS011;2105;52.300;9.182;2023-03-01T07:46:32;17.30;;;15.70;;
4182;SDS011;2105;52.300;9.182;2023-03-01T07:48:59;17.90;;;16.20;;
4182;SDS011;2105;52.300;9.182;2023-03-01T07:51:28;23.30;;;16.70;;
4182;SDS011;2105;52.300;9.182;2023-03-01T07:53:55;17.90;;;16.20;;
4182;SDS011;2105;52.300;9.182;2023-03-01T07:56:21;19.20;;;17.47;;
4182;SDS011;2105;52.300;9.182;2023-03-01T07:58:48;22.10;;;17.97;;
4182;SDS011;2105;52.300;9.182;2023-03-01T08:01:16;21.23;;;17.40;;
4182;SDS011;2105;52.300;9.182;2023-03-01T08:03:46;18.30;;;16.53;;
4182;SDS011;2105;52.300;9.182;2023-03-01T08:06:13;20.90;;;17.50;;
4182;SDS011;2105;52.300;9.182;2023-03-01T08:08:42;18.33;;;16.63;;
4182;SDS011;2105;52.300;9.182;2023-03-01T08:11:10;17.63;;;16.03;;
4182;SDS011;2105;52.300;9.182;2023-03-01T08:13:39;18.93;;;16.90;;
4182;SDS011;2105;52.300;9.182;2023-03-01T08:16:06;19.53;;;17.20;;
4182;SDS011;2105;52.300;9.182;2023-03-01T08:18:34;20.03;;;17.10;;
4182;SDS011;2105;52.300;9.182;2023-03-01T08:21:03;18.50;;;16.70;;
4182;SDS011;2105;52.300;9.182;2023-03-01T08:23:31;18.50;;;16.77;;
4182;SDS011;2105;52.300;9.182;2023-03-01T08:26:07;18.33;;;16.60;;
4182;SDS011;2105;52.300;9.182;2023-03-01T08:28:35;20.23;;;17.50;;
4182;SDS011;2105;52.300;9.182;2023-03-01T08:31:02;19.93;;;17.80;;
4182;SDS011;2105;52.300;9.182;2023-03-01T08:33:38;22.07;;;18.43;;
4182;SDS011;2105;52.300;9.182;2023-03-01T08:36:07;21.90;;;19.50;;
4182;SDS011;2105;52.300;9.182;2023-03-01T08:38:34;21.47;;;19.37;;
4182;SDS011;2105;52.300;9.182;2023-03-01T08:41:01;22.33;;;19.90;;
4182;SDS011;2105;52.300;9.182;2023-03-01T08:43:29;22.80;;;20.50;;
4182;SDS011;2105;52.300;9.182;2023-03-01T08:45:56;23.67;;;20.30;;
4182;SDS011;2105;52.300;9.182;2023-03-01T08:48:27;23.27;;;20.87;;
4182;SDS011;2105;52.300;9.182;2023-03-01T08:50:57;25.47;;;21.90;;
4182;SDS011;2105;52.300;9.182;2023-03-01T08:53:35;34.77;;;21.93;;
4182;SDS011;2105;52.300;9.182;2023-03-01T08:56:03;22.70;;;20.40;;
4182;SDS011;2105;52.300;9.182;2023-03-01T08:58:30;27.17;;;20.10;;
4182;SDS011;2105;52.300;9.182;2023-03-01T09:00:58;30.13;;;21.70;;
4182;SDS011;2105;52.300;9.182;2023-03-01T09:03:25;25.70;;;21.13;;
4182;SDS011;2105;52.300;9.182;2023-03-01T09:05:59;30.40;;;20.60;;
4182;SDS011;2105;52.300;9.182;2023-03-01T09:08:28;22.80;;;20.40;;
4182;SDS011;2105;52.300;9.182;2023-03-01T09:10:55;22.03;;;19.83;;
4182;SDS011;2105;52.300;9.182;2023-03-01T09:13:22;29.03;;;19.53;;
4182;SDS011;2105;52.300;9.182;2023-03-01T09:15:50;22.23;;;19.93;;
4182;SDS011;2105;52.300;9.182;2023-03-01T09:18:17;22.30;;;20.30;;
4182;SDS011;2105;52.300;9.182;2023-03-01T09:20:44;29.97;;;20.40;;
4182;SDS011;2105;52.300;9.182;2023-03-01T09:23:11;37.77;;;20.33;;
4182;SDS011;2105;52.300;9.182;2023-03-01T09:25:43;26.63;;;21.27;;
4182;SDS011;2105;52.300;9.182;2023-03-01T09:28:16;23.03;;;20.27;;
4182;SDS011;2105;52.300;9.182;2023-03-01T09:30:50;21.80;;;19.43;;
4182;SDS011;2105;52.300;9.182;2023-03-01T09:33:18;21.43;;;19.20;;
4182;SDS011;2105;52.300;9.182;2023-03-01T09:35:45;23.10;;;19.47;;
4182;SDS011;2105;52.300;9.182;2023-03-01T09:38:12;23.80;;;19.23;;
4182;SDS011;2105;52.300;9.182;2023-03-01T09:40:43;34.37;;;20.10;;
4182;SDS011;2105;52.300;9.182;2023-03-01T09:43:13;25.97;;;18.83;;
4182;SDS011;2105;52.300;9.182;2023-03-01T09:45:45;20.53;;;18.07;;
4182;SDS011;2105;52.300;9.182;2023-03-01T09:48:16;22.10;;;18.50;;
4182;SDS011;2105;52.300;9.182;2023-03-01T09:50:47;23.20;;;19.30;;
4182;SDS011;2105;52.300;9.182;2023-03-01T09:53:15;20.97;;;18.80;;
4182;SDS011;2105;52.300;9.182;2023-03-01T09:55:47;20.87;;;19.00;;
4182;SDS011;2105;52.300;9.182;2023-03-01T09:58:38;20.13;;;18.13;;
4182;SDS011;2105;52.300;9.182;2023-03-01T10:01:20;20.07;;;17.93;;
4182;SDS011;2105;52.300;9.182;2023-03-01T10:04:00;20.87;;;18.67;;
4182;SDS011;2105;52.300;9.182;2023-03-01T10:06:56;26.03;;;23.30;;
4182;SDS011;2105;52.300;9.182;2023-03-01T10:09:32;21.20;;;19.10;;
4182;SDS011;2105;52.300;9.182;2023-03-01T10:12:02;19.70;;;17.87;;
4182;SDS011;2105;52.300;9.182;2023-03-01T10:14:35;20.40;;;18.37;;
4182;SDS011;2105;52.300;9.182;2023-03-01T10:17:05;42.67;;;24.20;;
4182;SDS011;2105;52.300;9.182;2023-03-01T10:19:40;20.63;;;18.50;;
4182;SDS011;2105;52.300;9.182;2023-03-01T10:22:11;20.77;;;18.73;;
4182;SDS011;2105;52.300;9.182;2023-03-01T10:24:41;22.33;;;19.87;;
4182;SDS011;2105;52.300;9.182;2023-03-01T10:27:11;21.33;;;19.13;;
4182;SDS011;2105;52.300;9.182;2023-03-01T10:29:44;21.60;;;19.17;;
4182;SDS011;2105;52.300;9.182;2023-03-01T10:32:15;20.90;;;18.90;;
4182;SDS011;2105;52.300;9.182;2023-03-01T10:34:43;23.27;;;20.77;;
4182;SDS011;2105;52.300;9.182;2023-03-01T10:37:11;20.87;;;18.80;;
4182;SDS011;2105;52.300;9.182;2023-03-01T10:39:54;23.27;;;20.00;;
4182;SDS011;2105;52.300;9.182;2023-03-01T10:42:25;22.03;;;19.53;;
4182;SDS011;2105;52.300;9.182;2023-03-01T10:44:55;21.13;;;19.03;;
4182;SDS011;2105;52.300;9.182;2023-03-01T10:47:22;22.33;;;20.17;;
4182;SDS011;2105;52.300;9.182;2023-03-01T10:49:54;21.00;;;19.00;;
4182;SDS011;2105;52.300;9.182;2023-03-01T10:52:24;20.77;;;18.80;;
4182;SDS011;2105;52.300;9.182;2023-03-01T10:54:53;20.97;;;19.00;;
4182;SDS011;2105;52.300;9.182;2023-03-01T10:57:27;21.87;;;19.80;;
4182;SDS011;2105;52.300;9.182;2023-03-01T11:03:01;23.07;;;19.80;;
4182;SDS011;2105;52.300;9.182;2023-03-01T11:05:36;21.30;;;19.40;;
4182;SDS011;2105;52.300;9.182;2023-03-01T11:08:03;21.13;;;19.30;;
4182;SDS011;2105;52.300;9.182;2023-03-01T11:10:30;21.13;;;19.13;;
4182;SDS011;2105;52.300;9.182;2023-03-01T11:13:08;20.57;;;18.73;;
4182;SDS011;2105;52.300;9.182;2023-03-01T11:15:40;20.43;;;18.47;;
4182;SDS011;2105;52.300;9.182;2023-03-01T11:18:15;21.60;;;19.43;;
4182;SDS011;2105;52.300;9.182;2023-03-01T11:20:45;21.63;;;19.43;;
4182;SDS011;2105;52.300;9.182;2023-03-01T11:23:14;20.83;;;18.83;;
4182;SDS011;2105;52.300;9.182;2023-03-01T11:25:42;21.67;;;19.50;;
4182;SDS011;2105;52.300;9.182;2023-03-01T11:28:14;20.90;;;19.00;;
4182;SDS011;2105;52.300;9.182;2023-03-01T11:30:44;22.40;;;18.80;;
4182;SDS011;2105;52.300;9.182;2023-03-01T11:33:20;19.80;;;18.07;;
4182;SDS011;2105;52.300;9.182;2023-03-01T11:36:00;20.30;;;18.30;;
4182;SDS011;2105;52.300;9.182;2023-03-01T11:38:32;21.27;;;19.07;;
4182;SDS011;2105;52.300;9.182;2023-03-01T11:41:04;20.53;;;18.70;;
4182;SDS011;2105;52.300;9.182;2023-03-01T11:43:36;20.47;;;18.70;;
4182;SDS011;2105;52.300;9.182;2023-03-01T11:49:12;20.30;;;18.50;;
4182;SDS011;2105;52.300;9.182;2023-03-01T11:51:53;20.67;;;18.67;;
4182;SDS011;2105;52.300;9.182;2023-03-01T11:54:35;22.77;;;20.57;;
4182;SDS011;2105;52.300;9.182;2023-03-01T11:57:15;21.23;;;18.97;;
4182;SDS011;2105;52.300;9.182;2023-03-01T11:59:54;22.43;;;20.20;;
4182;SDS011;2105;52.300;9.182;2023-03-01T12:02:36;21.30;;;19.20;;
4182;SDS011;2105;52.300;9.182;2023-03-01T12:05:20;21.40;;;19.37;;
4182;SDS011;2105;52.300;9.182;2023-03-01T12:08:01;21.77;;;19.50;;
4182;SDS011;2105;52.300;9.182;2023-03-01T12:10:35;20.70;;;18.60;;
4182;SDS011;2105;52.300;9.182;2023-03-01T12:13:16;31.07;;;19.00;;
4182;SDS011;2105;52.300;9.182;2023-03-01T12:16:04;20.90;;;18.83;;
4182;SDS011;2105;52.300;9.182;2023-03-01T12:18:43;21.70;;;19.27;;
4182;SDS011;2105;52.300;9.182;2023-03-01T12:21:30;21.33;;;19.17;;
4182;SDS011;2105;52.300;9.182;2023-03-01T12:27:08;21.10;;;18.97;;
4182;SDS011;2105;52.300;9.182;2023-03-01T12:29:47;21.53;;;19.20;;
4182;SDS011;2105;52.300;9.182;2023-03-01T12:32:36;21.37;;;19.20;;
4182;SDS011;2105;52.300;9.182;2023-03-01T12:35:20;20.73;;;18.83;;
4182;SDS011;2105;52.300;9.182;2023-03-01T12:37:54;20.67;;;18.47;;
4182;SDS011;2105;52.300;9.182;2023-03-01T12:40:33;21.23;;;18.43;;
4182;SDS011;2105;52.300;9.182;2023-03-01T12:43:27;20.20;;;18.00;;
4182;SDS011;2105;52.300;9.182;2023-03-01T12:46:08;22.63;;;18.13;;
4182;SDS011;2105;52.300;9.182;2023-03-01T12:48:46;19.23;;;17.50;;
4182;SDS011;2105;52.300;9.182;2023-03-01T12:51:23;19.50;;;17.20;;
4182;SDS011;2105;52.300;9.182;2023-03-01T12:53:53;20.77;;;18.00;;
4182;SDS011;2105;52.300;9.182;2023-03-01T12:56:23;19.40;;;17.50;;
4182;SDS011;2105;52.300;9.182;2023-03-01T12:58:55;21.20;;;18.90;;
4182;SDS011;2105;52.300;9.182;2023-03-01T13:01:33;19.77;;;17.87;;
4182;SDS011;2105;52.300;9.182;2023-03-01T13:04:23;18.83;;;17.10;;
4182;SDS011;2105;52.300;9.182;2023-03-01T13:06:59;17.70;;;16.30;;
4182;SDS011;2105;52.300;9.182;2023-03-01T13:09:35;18.33;;;16.50;;
4182;SDS011;2105;52.300;9.182;2023-03-01T13:17:52;18.30;;;16.70;;
4182;SDS011;2105;52.300;9.182;2023-03-01T13:20:23;18.30;;;16.70;;
4182;SDS011;2105;52.300;9.182;2023-03-01T13:28:49;18.00;;;16.50;;
4182;SDS011;2105;52.300;9.182;2023-03-01T13:34:39;18.37;;;16.67;;
4182;SDS011;2105;52.300;9.182;2023-03-01T13:37:17;18.30;;;16.60;;
4182;SDS011;2105;52.300;9.182;2023-03-01T13:39:50;18.20;;;16.70;;
4182;SDS011;2105;52.300;9.182;2023-03-01T13:42:29;18.13;;;16.63;;
4182;SDS011;2105;52.300;9.182;2023-03-01T13:45:12;18.10;;;16.50;;
4182;SDS011;2105;52.300;9.182;2023-03-01T13:47:44;18.33;;;16.73;;
4182;SDS011;2105;52.300;9.182;2023-03-01T13:50:16;18.27;;;16.60;;
4182;SDS011;2105;52.300;9.182;2023-03-01T13:52:48;18.40;;;16.80;;
4182;SDS011;2105;52.300;9.182;2023-03-01T13:55:19;20.10;;;17.90;;
4182;SDS011;2105;52.300;9.182;2023-03-01T13:57:50;20.17;;;18.27;;
4182;SDS011;2105;52.300;9.182;2023-03-01T14:00:26;18.90;;;17.10;;
4182;SDS011;2105;52.300;9.182;2023-03-01T14:03:04;19.33;;;17.60;;
4182;SDS011;2105;52.300;9.182;2023-03-01T14:05:35;18.90;;;17.23;;
4182;SDS011;2105;52.300;9.182;2023-03-01T14:08:05;19.30;;;17.60;;
4182;SDS011;2105;52.300;9.182;2023-03-01T14:10:49;20.80;;;18.63;;
4182;SDS011;2105;52.300;9.182;2023-03-01T14:13:29;19.00;;;17.43;;
4182;SDS011;2105;52.300;9.182;2023-03-01T14:16:11;19.80;;;17.20;;
4182;SDS011;2105;52.300;9.182;2023-03-01T14:18:51;18.67;;;16.97;;
4182;SDS011;2105;52.300;9.182;2023-03-01T14:21:27;18.30;;;16.80;;
4182;SDS011;2105;52.300;9.182;2023-03-01T14:23:56;19.57;;;17.50;;
4182;SDS011;2105;52.300;9.182;2023-03-01T14:26:24;19.10;;;17.03;;
4182;SDS011;2105;52.300;9.182;2023-03-01T14:28:51;21.80;;;18.20;;
4182;SDS011;2105;52.300;9.182;2023-03-01T14:31:35;17.73;;;16.43;;
4182;SDS011;2105;52.300;9.182;2023-03-01T14:34:03;18.83;;;17.10;;
4182;SDS011;2105;52.300;9.182;2023-03-01T14:36:31;18.57;;;16.80;;
4182;SDS011;2105;52.300;9.182;2023-03-01T14:39:01;20.90;;;18.80;;
4182;SDS011;2105;52.300;9.182;2023-03-01T14:41:42;23.70;;;20.30;;
4182;SDS011;2105;52.300;9.182;2023-03-01T14:44:12;20.23;;;18.23;;
4182;SDS011;2105;52.300;9.182;2023-03-01T14:46:43;19.13;;;17.30;;
4182;SDS011;2105;52.300;9.182;2023-03-01T14:49:12;21.37;;;19.17;;
4182;SDS011;2105;52.300;9.182;2023-03-01T14:51:43;18.73;;;16.90;;
4182;SDS011;2105;52.300;9.182;2023-03-01T14:54:20;18.53;;;16.93;;
4182;SDS011;2105;52.300;9.182;2023-03-01T14:56:50;18.27;;;16.63;;
4182;SDS011;2105;52.300;9.182;2023-03-01T14:59:23;18.50;;;16.90;;
4182;SDS011;2105;52.300;9.182;2023-03-01T15:01:50;18.03;;;16.50;;
4182;SDS011;2105;52.300;9.182;2023-03-01T15:04:19;18.37;;;16.83;;
4182;SDS011;2105;52.300;9.182;2023-03-01T15:06:47;18.63;;;16.80;;
4182;SDS011;2105;52.300;9.182;2023-03-01T15:09:17;18.33;;;16.60;;
4182;SDS011;2105;52.300;9.182;2023-03-01T15:11:46;18.30;;;16.50;;
4182;SDS011;2105;52.300;9.182;2023-03-01T15:14:29;18.17;;;16.57;;
4182;SDS011;2105;52.300;9.182;2023-03-01T15:17:15;18.90;;;17.20;;
4182;SDS011;2105;52.300;9.182;2023-03-01T15:19:47;18.50;;;17.00;;
4182;SDS011;2105;52.300;9.182;2023-03-01T15:22:14;18.40;;;16.60;;
4182;SDS011;2105;52.300;9.182;2023-03-01T15:24:45;18.20;;;16.50;;
4182;SDS011;2105;52.300;9.182;2023-03-01T15:27:15;18.57;;;16.87;;
4182;SDS011;2105;52.300;9.182;2023-03-01T15:29:47;18.40;;;16.80;;
4182;SDS011;2105;52.300;9.182;2023-03-01T15:32:27;18.27;;;16.60;;
4182;SDS011;2105;52.300;9.182;2023-03-01T15:34:56;18.90;;;17.30;;
4182;SDS011;2105;52.300;9.182;2023-03-01T15:37:38;19.90;;;17.33;;
4182;SDS011;2105;52.300;9.182;2023-03-01T15:40:19;17.87;;;16.33;;
4182;SDS011;2105;52.300;9.182;2023-03-01T15:42:50;18.80;;;16.83;;
4182;SDS011;2105;52.300;9.182;2023-03-01T15:45:21;18.53;;;16.80;;
4182;SDS011;2105;52.300;9.182;2023-03-01T15:47:50;18.20;;;16.57;;
4182;SDS011;2105;52.300;9.182;2023-03-01T15:50:23;18.13;;;16.50;;
4182;SDS011;2105;52.300;9.182;2023-03-01T15:52:51;18.97;;;16.90;;
4182;SDS011;2105;52.300;9.182;2023-03-01T15:55:19;17.57;;;16.03;;